createdAt,value
2022-09-26T00:01:38.697Z,11.82
2022-09-26T00:04:10.217Z,11.80
2022-09-26T00:06:38.103Z,11.76
2022-09-26T00:09:05.803Z,11.72
2022-09-26T00:11:34.741Z,11.68
2022-09-26T00:14:08.194Z,11.64
2022-09-26T00:16:36.197Z,11.60
2022-09-26T00:19:04.986Z,11.58
2022-09-26T00:21:34.360Z,11.59
2022-09-26T00:24:03.140Z,11.57
2022-09-26T00:26:33.760Z,11.56
2022-09-26T00:29:07.140Z,11.55
2022-09-26T00:31:40.851Z,11.57
2022-09-26T00:34:15.316Z,11.57
2022-09-26T00:36:43.556Z,11.60
2022-09-26T00:39:15.461Z,11.61
2022-09-26T00:41:44.872Z,11.64
2022-09-26T00:44:41.815Z,11.65
2022-09-26T00:47:28.069Z,11.66
2022-09-26T00:50:07.894Z,11.68
2022-09-26T00:52:43.904Z,11.65
2022-09-26T00:55:15.906Z,11.62
2022-09-26T00:58:06.745Z,11.58
2022-09-26T01:00:34.469Z,11.54
2022-09-26T01:03:03.791Z,11.47
2022-09-26T01:05:32.767Z,11.41
2022-09-26T01:08:02.675Z,11.36
2022-09-26T01:10:30.470Z,11.32
2022-09-26T01:13:00.241Z,11.28
2022-09-26T01:15:29.087Z,11.24
2022-09-26T01:17:57.351Z,11.23
2022-09-26T01:20:56.006Z,11.22
2022-09-26T01:23:45.383Z,11.21
2022-09-26T01:26:34.702Z,11.23
2022-09-26T01:29:31.435Z,11.24
2022-09-26T01:32:48.468Z,11.27
2022-09-26T01:35:28.344Z,11.28
2022-09-26T01:38:35.185Z,11.28
2022-09-26T01:41:24.713Z,11.26
2022-09-26T01:44:20.729Z,11.23
2022-09-26T01:47:39.510Z,11.16
2022-09-26T01:50:45.487Z,11.13
2022-09-26T01:53:25.944Z,11.12
2022-09-26T01:56:09.888Z,11.10
2022-09-26T01:58:53.455Z,11.05
2022-09-26T02:01:25.474Z,11.02
2022-09-26T02:04:01.792Z,10.97
2022-09-26T02:06:44.398Z,10.92
2022-09-26T02:09:33.847Z,10.87
2022-09-26T02:12:09.878Z,10.83
2022-09-26T02:14:41.918Z,10.79
2022-09-26T02:17:16.529Z,10.80
2022-09-26T02:19:59.345Z,10.80
2022-09-26T02:22:33.785Z,10.80
2022-09-26T02:25:03.483Z,10.80
2022-09-26T02:27:31.519Z,10.80
2022-09-26T02:29:59.655Z,10.82
2022-09-26T02:32:31.897Z,10.84
2022-09-26T02:35:22.222Z,10.84
2022-09-26T02:37:50.320Z,10.88
2022-09-26T02:40:20.381Z,10.89
2022-09-26T02:43:01.886Z,10.90
2022-09-26T02:46:00.203Z,10.91
2022-09-26T02:48:48.155Z,10.95
2022-09-26T02:51:42.170Z,10.98
2022-09-26T02:54:25.602Z,10.99
2022-09-26T02:57:40.029Z,10.98
2022-09-26T03:00:16.206Z,10.96
2022-09-26T03:03:01.233Z,10.95
2022-09-26T03:05:34.998Z,10.92
2022-09-26T03:08:25.150Z,10.88
2022-09-26T03:10:59.732Z,10.83
2022-09-26T03:13:29.800Z,10.80
2022-09-26T03:15:59.573Z,10.78
2022-09-26T03:18:38.495Z,10.77
2022-09-26T03:21:07.541Z,10.75
2022-09-26T03:23:35.425Z,10.76
2022-09-26T03:26:13.951Z,10.74
2022-09-26T03:28:52.678Z,10.76
2022-09-26T03:31:25.185Z,10.75
2022-09-26T03:34:00.030Z,10.74
2022-09-26T03:36:28.629Z,10.75
2022-09-26T03:38:56.618Z,10.76
2022-09-26T03:41:44.943Z,10.77
2022-09-26T03:44:25.411Z,10.80
2022-09-26T03:47:05.623Z,10.82
2022-09-26T03:49:38.843Z,10.85
2022-09-26T03:52:10.634Z,10.85
2022-09-26T03:54:38.510Z,10.88
2022-09-26T03:57:06.429Z,10.90
2022-09-26T03:59:36.473Z,10.92
2022-09-26T04:02:05.244Z,10.96
2022-09-26T04:04:36.753Z,10.97
2022-09-26T04:07:04.523Z,11.02
2022-09-26T04:09:32.480Z,11.02
2022-09-26T04:12:01.257Z,11.04
2022-09-26T04:14:29.031Z,11.06
2022-09-26T04:16:59.204Z,11.09
2022-09-26T04:19:34.065Z,11.10
2022-09-26T04:22:02.005Z,11.13
2022-09-26T04:24:33.989Z,11.16
2022-09-26T04:27:01.896Z,11.19
2022-09-26T04:29:30.223Z,11.23
2022-09-26T04:32:13.016Z,11.26
2022-09-26T04:35:01.009Z,11.29
2022-09-26T04:37:37.004Z,11.31
2022-09-26T04:40:05.201Z,11.36
2022-09-26T04:42:36.880Z,11.39
2022-09-26T04:45:05.542Z,11.40
2022-09-26T04:47:33.478Z,11.43
2022-09-26T04:50:30.236Z,11.45
2022-09-26T04:53:09.007Z,11.46
2022-09-26T04:55:56.942Z,11.50
2022-09-26T04:58:24.919Z,11.54
2022-09-26T05:00:53.093Z,11.58
2022-09-26T05:03:29.565Z,11.62
2022-09-26T05:05:58.051Z,11.64
2022-09-26T05:08:26.935Z,11.67
2022-09-26T05:10:57.387Z,11.72
2022-09-26T05:13:26.755Z,11.74
2022-09-26T05:15:55.810Z,11.77
2022-09-26T05:18:24.792Z,11.81
2022-09-26T05:20:53.963Z,11.85
2022-09-26T05:23:45.021Z,11.91
2022-09-26T05:26:26.861Z,11.96
2022-09-26T05:29:08.333Z,12.00
2022-09-26T05:31:57.219Z,12.03
2022-09-26T05:34:26.164Z,12.05
2022-09-26T05:36:54.131Z,12.10
2022-09-26T05:39:42.666Z,12.14
2022-09-26T05:42:11.180Z,12.18
2022-09-26T05:44:39.743Z,12.23
2022-09-26T05:47:08.875Z,12.29
2022-09-26T05:49:37.107Z,12.34
2022-09-26T05:52:05.172Z,12.39
2022-09-26T05:54:33.063Z,12.44
2022-09-26T05:57:01.631Z,12.47
2022-09-26T05:59:46.878Z,12.48
2022-09-26T06:02:26.827Z,12.50
2022-09-26T06:05:15.122Z,12.52
2022-09-26T06:08:01.778Z,12.59
2022-09-26T06:10:39.642Z,12.64
2022-09-26T06:13:07.869Z,12.70
2022-09-26T06:15:54.521Z,12.76
2022-09-26T06:18:22.263Z,12.82
2022-09-26T06:20:50.762Z,12.88
2022-09-26T06:23:18.502Z,12.95
2022-09-26T06:25:47.222Z,12.98
2022-09-26T06:28:14.975Z,13.02
2022-09-26T06:30:42.616Z,13.07
2022-09-26T06:33:13.322Z,13.11
2022-09-26T06:36:04.177Z,13.13
2022-09-26T06:38:36.558Z,13.08
2022-09-26T06:41:07.471Z,13.06
2022-09-26T06:43:35.639Z,13.04
2022-09-26T06:46:32.688Z,13.00
2022-09-26T06:49:13.240Z,12.99
2022-09-26T06:51:43.754Z,12.99
2022-09-26T06:54:11.854Z,12.97
2022-09-26T06:56:39.735Z,12.94
2022-09-26T06:59:08.488Z,12.86
2022-09-26T07:01:41.437Z,12.79
2022-09-26T07:04:35.877Z,12.70
2022-09-26T07:07:30.270Z,12.63
2022-09-26T07:09:58.338Z,12.57
2022-09-26T07:12:40.811Z,12.55
2022-09-26T07:15:09.622Z,12.59
2022-09-26T07:17:37.329Z,12.63
2022-09-26T07:20:36.879Z,12.69
2022-09-26T07:23:10.796Z,12.73
2022-09-26T07:25:39.717Z,12.76
2022-09-26T07:28:11.162Z,12.72
2022-09-26T07:30:47.788Z,12.66
2022-09-26T07:33:47.825Z,12.58
2022-09-26T07:36:16.160Z,12.54
2022-09-26T07:38:48.556Z,12.51
2022-09-26T07:41:17.995Z,12.50
2022-09-26T07:44:53.023Z,12.49
2022-09-26T07:46:53.192Z,12.52
2022-09-26T07:49:39.566Z,12.59
2022-09-26T07:52:15.223Z,12.71
2022-09-26T07:54:51.320Z,12.86
2022-09-26T07:57:33.009Z,13.02
2022-09-26T08:00:14.575Z,13.16
2022-09-26T08:02:46.980Z,13.23
2022-09-26T08:05:20.113Z,13.29
2022-09-26T08:07:49.350Z,13.36
2022-09-26T08:10:37.337Z,13.43
2022-09-26T08:13:42.195Z,13.52
2022-09-26T08:16:23.435Z,13.58
2022-09-26T08:18:55.008Z,13.59
2022-09-26T08:21:25.188Z,13.65
2022-09-26T08:23:56.521Z,13.70
2022-09-26T08:26:44.557Z,13.72
2022-09-26T08:29:23.522Z,13.81
2022-09-26T08:31:54.723Z,13.84
2022-09-26T08:34:25.409Z,13.81
2022-09-26T08:37:14.287Z,13.86
2022-09-26T08:40:02.371Z,13.96
2022-09-26T08:43:15.172Z,13.95
2022-09-26T08:46:38.045Z,13.95
2022-09-26T08:50:11.711Z,13.89
2022-09-26T08:52:56.905Z,13.90
2022-09-26T08:55:32.810Z,13.93
2022-09-26T08:58:16.026Z,13.89
2022-09-26T09:00:47.515Z,13.86
2022-09-26T09:03:36.753Z,13.89
2022-09-26T09:06:12.981Z,14.01
2022-09-26T09:08:48.938Z,14.17
2022-09-26T09:12:10.378Z,14.24
2022-09-26T09:15:34.088Z,14.20
2022-09-26T09:18:36.563Z,14.07
2022-09-26T09:22:03.401Z,14.02
2022-09-26T09:25:01.268Z,14.01
2022-09-26T09:28:01.286Z,14.24
2022-09-26T09:30:47.560Z,14.38
2022-09-26T09:33:49.326Z,14.34
2022-09-26T09:36:59.485Z,14.24
2022-09-26T09:39:39.943Z,14.13
2022-09-26T09:42:55.186Z,14.15
2022-09-26T09:45:48.138Z,14.22
2022-09-26T09:48:16.255Z,14.39
2022-09-26T09:51:10.494Z,14.57
2022-09-26T09:54:14.544Z,14.65
2022-09-26T09:57:15.268Z,14.84
2022-09-26T10:00:25.194Z,15.07
2022-09-26T10:03:11.394Z,15.14
2022-09-26T10:05:45.189Z,15.06
2022-09-26T10:08:24.891Z,15.08
2022-09-26T10:11:19.389Z,15.15
2022-09-26T10:14:12.328Z,15.07
2022-09-26T10:17:20.675Z,14.98
2022-09-26T10:20:59.703Z,14.97
2022-09-26T10:23:44.112Z,14.92
2022-09-26T10:26:29.031Z,14.90
2022-09-26T10:29:02.581Z,14.88
2022-09-26T10:31:41.347Z,14.92
2022-09-26T10:34:31.069Z,14.97
2022-09-26T10:37:22.898Z,15.07
2022-09-26T10:40:14.283Z,14.98
2022-09-26T10:42:47.202Z,14.99
2022-09-26T10:45:20.407Z,15.09
2022-09-26T10:48:55.327Z,15.31
2022-09-26T10:52:01.362Z,15.26
2022-09-26T10:55:05.061Z,15.03
2022-09-26T10:57:57.476Z,14.70
2022-09-26T11:00:43.847Z,14.64
2022-09-26T11:03:21.824Z,14.81
2022-09-26T11:06:35.791Z,15.00
2022-09-26T11:09:20.692Z,15.19
2022-09-26T11:12:39.908Z,15.18
2022-09-26T11:15:13.885Z,15.20
2022-09-26T11:17:51.741Z,15.16
2022-09-26T11:20:50.613Z,15.05
2022-09-26T11:23:27.759Z,14.94
2022-09-26T11:26:17.033Z,14.76
2022-09-26T11:29:05.040Z,14.52
2022-09-26T11:31:44.078Z,14.32
2022-09-26T11:34:31.443Z,14.26
2022-09-26T11:37:43.242Z,14.25
2022-09-26T11:40:46.053Z,14.23
2022-09-26T11:43:28.994Z,14.31
2022-09-26T11:46:21.369Z,14.39
2022-09-26T11:50:02.931Z,14.65
2022-09-26T11:52:57.947Z,14.71
2022-09-26T11:55:37.217Z,14.74
2022-09-26T11:58:26.678Z,14.62
2022-09-26T12:01:07.537Z,14.49
2022-09-26T12:04:01.503Z,14.59
2022-09-26T12:06:41.538Z,14.59
2022-09-26T12:09:20.899Z,14.61
2022-09-26T12:12:29.539Z,14.81
2022-09-26T12:15:45.077Z,14.98
2022-09-26T12:18:39.402Z,15.08
2022-09-26T12:22:09.168Z,14.98
2022-09-26T12:24:58.558Z,14.95
2022-09-26T12:28:05.727Z,14.91
2022-09-26T12:30:49.888Z,15.00
2022-09-26T12:33:39.681Z,15.17
2022-09-26T12:36:28.681Z,15.26
2022-09-26T12:39:51.742Z,15.28
2022-09-26T12:42:35.839Z,15.43
2022-09-26T12:45:24.350Z,15.51
2022-09-26T12:48:20.271Z,15.34
2022-09-26T12:51:42.640Z,15.08
2022-09-26T12:54:33.036Z,14.87
2022-09-26T12:57:39.187Z,14.74
2022-09-26T13:00:23.165Z,14.67
2022-09-26T13:03:07.973Z,14.72
2022-09-26T13:05:58.025Z,14.80
2022-09-26T13:08:47.338Z,14.85
2022-09-26T13:11:44.301Z,15.00
2022-09-26T13:14:49.148Z,15.12
2022-09-26T13:17:24.553Z,15.15
2022-09-26T13:20:03.994Z,15.20
2022-09-26T13:22:47.940Z,15.15
2022-09-26T13:25:20.381Z,15.06
2022-09-26T13:28:06.332Z,14.83
2022-09-26T13:30:46.728Z,14.58
2022-09-26T13:33:27.558Z,14.32
2022-09-26T13:36:01.357Z,14.23
2022-09-26T13:39:09.126Z,14.18
2022-09-26T13:41:46.674Z,14.23
2022-09-26T13:44:43.742Z,14.30
2022-09-26T13:47:50.640Z,14.33
2022-09-26T13:50:32.573Z,14.13
2022-09-26T13:53:13.033Z,13.90
2022-09-26T13:55:43.250Z,13.62
2022-09-26T13:58:26.299Z,13.43
2022-09-26T14:00:54.523Z,13.24
2022-09-26T14:03:23.020Z,13.11
2022-09-26T14:06:01.858Z,13.05
2022-09-26T14:08:54.114Z,13.02
2022-09-26T14:11:27.689Z,13.04
2022-09-26T14:14:21.414Z,13.07
2022-09-26T14:17:01.559Z,13.13
2022-09-26T14:19:49.655Z,13.23
2022-09-26T14:22:23.058Z,13.35
2022-09-26T14:24:57.059Z,13.45
2022-09-26T14:27:39.370Z,13.52
2022-09-26T14:30:27.887Z,13.60
2022-09-26T14:33:04.596Z,13.77
2022-09-26T14:35:36.056Z,13.86
2022-09-26T14:38:09.755Z,13.95
2022-09-26T14:40:37.986Z,14.12
2022-09-26T14:43:17.257Z,14.25
2022-09-26T14:46:05.721Z,14.40
2022-09-26T14:48:39.999Z,14.47
2022-09-26T14:51:18.514Z,14.56
2022-09-26T14:53:48.801Z,14.62
2022-09-26T14:56:44.726Z,14.64
2022-09-26T14:59:24.856Z,14.65
2022-09-26T15:02:10.410Z,14.60
2022-09-26T15:04:39.253Z,14.52
2022-09-26T15:07:19.914Z,14.49
2022-09-26T15:10:05.032Z,14.55
2022-09-26T15:12:49.995Z,14.58
2022-09-26T15:16:00.454Z,14.61
2022-09-26T15:18:28.048Z,14.61
2022-09-26T15:21:10.204Z,14.67
2022-09-26T15:23:52.636Z,14.75
2022-09-26T15:26:26.329Z,14.81
2022-09-26T15:28:57.109Z,14.87
2022-09-26T15:31:38.519Z,14.94
2022-09-26T15:34:17.672Z,15.02
2022-09-26T15:36:57.714Z,14.98
2022-09-26T15:39:31.457Z,14.98
2022-09-26T15:42:39.728Z,14.92
2022-09-26T15:45:40.409Z,14.87
2022-09-26T15:48:20.281Z,14.83
2022-09-26T15:50:56.039Z,14.83
2022-09-26T15:53:36.246Z,14.84
2022-09-26T15:56:25.125Z,14.73
2022-09-26T15:59:13.049Z,14.69
2022-09-26T16:01:48.000Z,14.67
2022-09-26T16:04:49.409Z,14.66
2022-09-26T16:07:23.711Z,14.58
2022-09-26T16:09:52.418Z,14.50
2022-09-26T16:12:24.417Z,14.47
2022-09-26T16:15:05.750Z,14.55
2022-09-26T16:17:49.215Z,14.64
2022-09-26T16:20:16.981Z,14.59
2022-09-26T16:22:49.352Z,14.45
2022-09-26T16:25:32.311Z,14.34
2022-09-26T16:28:08.759Z,14.24
2022-09-26T16:30:41.689Z,14.20
2022-09-26T16:33:09.357Z,14.21
2022-09-26T16:35:45.004Z,14.23
2022-09-26T16:38:32.875Z,14.27
2022-09-26T16:41:48.904Z,14.27
2022-09-26T16:44:30.303Z,14.27
2022-09-26T16:47:04.657Z,14.27
2022-09-26T16:49:48.571Z,14.26
2022-09-26T16:52:28.428Z,14.28
2022-09-26T16:54:59.860Z,14.29
2022-09-26T16:57:38.274Z,14.27
2022-09-26T17:00:39.402Z,14.19
2022-09-26T17:03:31.095Z,14.10
2022-09-26T17:06:00.481Z,13.96
2022-09-26T17:08:28.720Z,13.83
2022-09-26T17:11:02.365Z,13.72
2022-09-26T17:13:35.200Z,13.61
2022-09-26T17:16:03.527Z,13.51
2022-09-26T17:18:33.363Z,13.41
2022-09-26T17:21:01.942Z,13.32
2022-09-26T17:23:41.055Z,13.23
2022-09-26T17:26:21.751Z,13.13
2022-09-26T17:28:53.309Z,13.06
2022-09-26T17:31:21.562Z,13.00
2022-09-26T17:33:53.046Z,12.95
2022-09-26T17:36:31.755Z,12.87
2022-09-26T17:39:00.947Z,12.78
2022-09-26T17:41:31.284Z,12.73
2022-09-26T17:44:01.120Z,12.70
2022-09-26T17:46:29.570Z,12.67
2022-09-26T17:48:59.255Z,12.68
2022-09-26T17:51:26.974Z,12.72
2022-09-26T17:53:57.368Z,12.74
2022-09-26T17:56:26.331Z,12.74
2022-09-26T17:58:54.315Z,12.76
2022-09-26T18:01:34.454Z,12.76
2022-09-26T18:04:09.236Z,12.76
2022-09-26T18:06:37.202Z,12.74
2022-09-26T18:09:09.826Z,12.74
2022-09-26T18:11:38.712Z,12.75
2022-09-26T18:14:07.976Z,12.76
2022-09-26T18:16:35.788Z,12.76
2022-09-26T18:19:07.529Z,12.76
2022-09-26T18:21:36.589Z,12.74
2022-09-26T18:24:06.829Z,12.76
2022-09-26T18:26:47.295Z,12.74
2022-09-26T18:29:26.306Z,12.75
2022-09-26T18:31:54.536Z,12.76
2022-09-26T18:34:22.333Z,12.77
2022-09-26T18:36:51.871Z,12.76
2022-09-26T18:39:19.671Z,12.74
2022-09-26T18:41:54.653Z,12.74
2022-09-26T18:44:23.891Z,12.72
2022-09-26T18:46:52.984Z,12.71
2022-09-26T18:49:21.113Z,12.72
2022-09-26T18:51:49.167Z,12.71
2022-09-26T18:54:17.799Z,12.69
2022-09-26T18:57:04.313Z,12.65
2022-09-26T18:59:32.208Z,12.63
2022-09-26T19:02:02.585Z,12.60
2022-09-26T19:04:31.583Z,12.58
2022-09-26T19:07:06.711Z,12.55
2022-09-26T19:09:36.221Z,12.50
2022-09-26T19:12:04.616Z,12.46
2022-09-26T19:14:32.594Z,12.44
2022-09-26T19:17:00.423Z,12.42
2022-09-26T19:19:30.171Z,12.39
2022-09-26T19:22:10.354Z,12.34
2022-09-26T19:24:51.609Z,12.27
2022-09-26T19:27:24.835Z,12.21
2022-09-26T19:30:21.274Z,12.19
2022-09-26T19:32:52.936Z,12.17
2022-09-26T19:35:27.050Z,12.15
2022-09-26T19:37:55.084Z,12.13
2022-09-26T19:40:25.109Z,12.11
2022-09-26T19:42:54.912Z,12.08
2022-09-26T19:45:24.178Z,12.04
2022-09-26T19:47:55.762Z,12.02
2022-09-26T19:50:26.267Z,12.00
2022-09-26T19:52:58.516Z,11.98
2022-09-26T19:55:30.565Z,11.94
2022-09-26T19:58:11.697Z,11.94
2022-09-26T20:00:43.488Z,11.90
2022-09-26T20:03:22.899Z,11.87
2022-09-26T20:05:51.199Z,11.83
2022-09-26T20:08:23.137Z,11.79
2022-09-26T20:11:01.240Z,11.74
2022-09-26T20:13:49.041Z,11.71
2022-09-26T20:16:16.975Z,11.68
2022-09-26T20:18:48.766Z,11.67
2022-09-26T20:21:21.645Z,11.64
2022-09-26T20:23:49.423Z,11.61
2022-09-26T20:26:18.817Z,11.57
2022-09-26T20:28:46.532Z,11.55
2022-09-26T20:31:29.075Z,11.53
2022-09-26T20:34:00.101Z,11.52
2022-09-26T20:36:32.754Z,11.50
2022-09-26T20:39:06.261Z,11.45
2022-09-26T20:41:40.692Z,11.44
2022-09-26T20:44:17.877Z,11.44
2022-09-26T20:46:52.378Z,11.40
2022-09-26T20:49:27.012Z,11.37
2022-09-26T20:51:57.322Z,11.33
2022-09-26T20:54:29.311Z,11.28
2022-09-26T20:56:58.769Z,11.19
2022-09-26T20:59:26.906Z,11.09
2022-09-26T21:01:56.979Z,11.01
2022-09-26T21:04:32.393Z,10.95
2022-09-26T21:07:00.054Z,10.91
2022-09-26T21:09:27.741Z,10.88
2022-09-26T21:11:55.508Z,10.85
2022-09-26T21:14:23.182Z,10.83
2022-09-26T21:16:52.408Z,10.82
2022-09-26T21:19:24.043Z,10.82
2022-09-26T21:21:58.659Z,10.82
2022-09-26T21:24:42.091Z,10.81
2022-09-26T21:27:11.530Z,10.80
2022-09-26T21:29:41.292Z,10.80
2022-09-26T21:32:16.965Z,10.81
2022-09-26T21:34:57.497Z,10.82
2022-09-26T21:37:25.434Z,10.80
2022-09-26T21:39:53.297Z,10.80
2022-09-26T21:42:21.688Z,10.81
2022-09-26T21:45:01.105Z,10.80
2022-09-26T21:47:29.292Z,10.81
2022-09-26T21:49:57.923Z,10.81
2022-09-26T21:52:44.650Z,10.82
2022-09-26T21:55:19.392Z,10.83
2022-09-26T21:57:50.294Z,10.84
2022-09-26T22:00:18.374Z,10.85
2022-09-26T22:02:46.231Z,10.83
2022-09-26T22:05:16.592Z,10.84
2022-09-26T22:07:44.248Z,10.85
2022-09-26T22:10:12.101Z,10.83
2022-09-26T22:12:40.458Z,10.83
2022-09-26T22:15:09.470Z,10.82
2022-09-26T22:17:37.163Z,10.82
2022-09-26T22:20:05.586Z,10.81
2022-09-26T22:22:33.728Z,10.81
2022-09-26T22:25:04.052Z,10.81
2022-09-26T22:27:34.366Z,10.82
2022-09-26T22:30:03.729Z,10.84
2022-09-26T22:32:31.749Z,10.85
2022-09-26T22:34:59.523Z,10.87
2022-09-26T22:37:27.984Z,10.90
2022-09-26T22:39:55.641Z,10.90
2022-09-26T22:42:23.409Z,10.91
2022-09-26T22:44:51.020Z,10.92
2022-09-26T22:47:19.196Z,10.91
2022-09-26T22:49:46.826Z,10.92
2022-09-26T22:52:14.533Z,10.91
2022-09-26T22:54:42.137Z,10.90
2022-09-26T22:57:09.909Z,10.90
2022-09-26T22:59:38.396Z,10.91
2022-09-26T23:02:06.150Z,10.91
2022-09-26T23:04:49.247Z,10.92
2022-09-26T23:07:19.797Z,10.90
2022-09-26T23:09:47.515Z,10.91
2022-09-26T23:12:15.297Z,10.91
2022-09-26T23:14:43.030Z,10.89
2022-09-26T23:17:11.211Z,10.87
2022-09-26T23:19:38.873Z,10.82
2022-09-26T23:22:06.746Z,10.78
2022-09-26T23:24:34.486Z,10.74
2022-09-26T23:27:02.216Z,10.71
2022-09-26T23:29:29.902Z,10.69
2022-09-26T23:31:57.838Z,10.71
2022-09-26T23:34:25.533Z,10.69
2022-09-26T23:36:53.206Z,10.65
2022-09-26T23:39:21.367Z,10.60
2022-09-26T23:41:48.991Z,10.55
2022-09-26T23:44:16.620Z,10.53
2022-09-26T23:46:44.491Z,10.51
2022-09-26T23:49:12.154Z,10.50
2022-09-26T23:51:39.886Z,10.52
2022-09-26T23:54:08.352Z,10.55
2022-09-26T23:56:36.206Z,10.56
2022-09-26T23:59:03.985Z,10.59
